Time;durP1;ratioP1;P1;durP2;ratioP2;P2;SDS_P1;SDS_P2;PMS_P1;PMS_P2;Temp;Humidity;BMP_temperature;BMP_pressure;BME280_temperature;BME280_humidity;BME280_pressure;Samples;Min_cycle;Max_cycle;Signal;HPM_P1;HPM_P2
2023/07/05 00:00:07;;;;;;;3.10;2.00;;;26.80;79.70;;;;;;10754694;33;20339;-71
2023/07/05 00:06:09;;;;;;;3.62;2.40;;;26.90;79.90;;;;;;10753803;33;20380;-71
2023/07/05 00:12:11;;;;;;;2.95;2.20;;;26.80;80.10;;;;;;10754418;33;20036;-71
2023/07/05 00:18:13;;;;;;;4.22;2.22;;;26.90;79.70;;;;;;10754299;33;20066;-71
2023/07/05 00:24:16;;;;;;;3.72;2.08;;;26.90;80.10;;;;;;10754141;33;20020;-71
2023/07/05 00:30:18;;;;;;;2.80;1.98;;;26.90;80.60;;;;;;10753944;33;20351;-71
2023/07/05 00:36:20;;;;;;;2.97;1.98;;;26.80;80.50;;;;;;10753796;33;20437;-71
2023/07/05 00:42:22;;;;;;;6.68;2.65;;;26.80;80.70;;;;;;10753557;33;20029;-71
2023/07/05 00:48:49;;;;;;;2.80;1.62;;;26.80;81.20;;;;;;10753454;33;20008;-71
2023/07/05 00:54:54;;;;;;;5.37;2.87;;;26.80;80.90;;;;;;10753249;33;20063;-72
2023/07/05 01:00:56;;;;;;;3.05;1.98;;;26.80;81.20;;;;;;10752828;33;20025;-71
2023/07/05 01:06:59;;;;;;;3.35;2.28;;;26.70;81.50;;;;;;10752866;33;20378;-72
2023/07/05 01:13:04;;;;;;;4.20;1.92;;;26.70;81.70;;;;;;10739699;33;20012;-72
2023/07/05 01:19:43;;;;;;;3.30;1.92;;;26.60;81.70;;;;;;10752260;33;20021;-71
2023/07/05 01:26:29;;;;;;;4.57;2.40;;;26.50;81.80;;;;;;10752422;33;20024;-72
2023/07/05 01:32:39;;;;;;;6.28;2.87;;;26.30;81.90;;;;;;10752258;33;20012;-73
2023/07/05 01:38:41;;;;;;;8.68;2.70;;;26.30;81.90;;;;;;10752096;33;20025;-73
2023/07/05 01:44:43;;;;;;;2.87;1.98;;;26.20;81.80;;;;;;10726679;33;20442;-71
2023/07/05 01:50:57;;;;;;;3.72;1.87;;;26.00;81.60;;;;;;10749087;33;20056;-71
2023/07/05 01:57:05;;;;;;;2.95;1.75;;;25.90;80.70;;;;;;10736289;33;20323;-72
2023/07/05 02:03:12;;;;;;;2.25;1.17;;;25.80;80.50;;;;;;10751368;33;20029;-72
2023/07/05 02:09:14;;;;;;;6.00;1.40;;;25.70;80.20;;;;;;10751317;33;20056;-72
2023/07/05 02:15:16;;;;;;;3.37;1.35;;;25.70;81.30;;;;;;10751183;33;20044;-72
2023/07/05 02:21:18;;;;;;;1.20;0.70;;;25.60;80.80;;;;;;10748989;33;20051;-73
2023/07/05 02:27:20;;;;;;;1.55;0.82;;;25.50;81.30;;;;;;10750816;33;20028;-72
2023/07/05 02:33:22;;;;;;;1.60;0.60;;;25.60;81.60;;;;;;10756313;33;20043;-72
2023/07/05 02:39:24;;;;;;;1.23;0.60;;;25.60;81.60;;;;;;10757178;33;20435;-72
2023/07/05 02:45:27;;;;;;;1.80;0.80;;;25.70;81.60;;;;;;10757029;33;20039;-72
2023/07/05 02:51:32;;;;;;;1.05;0.62;;;25.80;81.60;;;;;;10756897;33;20020;-72
2023/07/05 02:57:33;;;;;;;2.28;0.70;;;25.70;81.80;;;;;;10755709;33;20017;-72
2023/07/05 03:03:35;;;;;;;0.43;0.37;;;25.70;81.30;;;;;;10756343;33;20048;-72
2023/07/05 03:09:37;;;;;;;0.73;0.37;;;25.80;81.40;;;;;;10744045;32;20049;-72
2023/07/05 03:15:39;;;;;;;1.60;0.62;;;25.70;81.20;;;;;;10754682;33;20343;-72
2023/07/05 03:21:43;;;;;;;1.35;0.62;;;25.70;81.00;;;;;;10741003;33;20036;-71
2023/07/05 03:27:45;;;;;;;0.35;0.35;;;25.30;81.10;;;;;;10755788;33;20029;-71
2023/07/05 03:33:47;;;;;;;1.05;0.95;;;25.00;81.10;;;;;;10752815;33;20028;-72
2023/07/05 03:39:53;;;;;;;0.68;0.57;;;25.10;81.30;;;;;;10755544;33;20052;-73
2023/07/05 03:45:57;;;;;;;1.37;0.60;;;25.10;81.30;;;;;;10755214;33;20496;-72
2023/07/05 03:51:59;;;;;;;1.62;0.85;;;25.20;81.60;;;;;;10742259;33;20347;-72
2023/07/05 03:58:01;;;;;;;1.00;0.47;;;25.20;81.40;;;;;;10754993;33;20020;-71
2023/07/05 04:04:03;;;;;;;1.08;0.50;;;25.30;81.20;;;;;;10754819;33;20403;-71
2023/07/05 04:10:24;;;;;;;2.42;1.10;;;25.20;80.60;;;;;;10754704;33;20043;-72
2023/07/05 04:16:27;;;;;;;2.12;0.95;;;24.60;77.20;;;;;;10752736;33;20020;-72
2023/07/05 04:22:35;;;;;;;7.87;2.20;;;24.20;75.60;;;;;;10740800;33;20036;-72
2023/07/05 04:28:38;;;;;;;7.80;2.20;;;23.80;75.10;;;;;;10755264;33;20415;-73
2023/07/05 04:34:40;;;;;;;9.68;2.12;;;23.50;75.50;;;;;;10751234;33;20017;-73
2023/07/05 04:40:42;;;;;;;6.15;2.40;;;23.30;76.70;;;;;;10755020;33;20327;-71
2023/07/05 04:46:45;;;;;;;2.62;1.27;;;23.20;77.30;;;;;;10752612;33;20056;-71
2023/07/05 04:52:47;;;;;;;1.87;1.00;;;23.40;78.60;;;;;;10754258;33;20429;-71
2023/07/05 04:58:49;;;;;;;2.45;1.37;;;23.40;78.80;;;;;;10754532;33;20063;-69
2023/07/05 05:05:13;;;;;;;3.33;1.87;;;23.30;79.10;;;;;;10753173;33;20028;-70
2023/07/05 05:11:34;;;;;;;5.72;1.70;;;23.50;80.30;;;;;;10752783;33;20083;-69
2023/07/05 05:17:36;;;;;;;6.57;2.37;;;23.30;81.40;;;;;;10753380;33;20100;-69
2023/07/05 05:23:39;;;;;;;1.75;1.12;;;22.90;82.50;;;;;;10749937;33;20047;-69
2023/07/05 05:29:41;;;;;;;4.20;2.10;;;22.90;83.20;;;;;;10749237;33;20347;-72
2023/07/05 05:35:50;;;;;;;3.58;2.12;;;22.70;83.30;;;;;;10753458;33;20021;-71
2023/07/05 05:41:51;;;;;;;4.53;2.17;;;22.40;82.20;;;;;;10753707;33;20032;-71
2023/07/05 05:48:14;;;;;;;2.35;1.50;;;22.30;81.50;;;;;;10753041;33;20029;-70
2023/07/05 05:54:16;;;;;;;3.10;1.35;;;22.30;81.10;;;;;;10752985;33;20319;-71
2023/07/05 06:00:18;;;;;;;2.87;1.92;;;22.70;81.70;;;;;;10739264;32;20063;-72
2023/07/05 06:06:20;;;;;;;2.75;1.45;;;22.80;82.00;;;;;;10752787;33;20024;-71
2023/07/05 06:12:22;;;;;;;3.33;1.67;;;22.70;82.70;;;;;;10752360;33;20044;-71
2023/07/05 06:18:26;;;;;;;3.65;1.90;;;22.70;83.50;;;;;;10751219;33;20060;-74
2023/07/05 06:24:28;;;;;;;2.42;1.37;;;22.80;83.10;;;;;;10751493;33;20028;-72
2023/07/05 06:30:30;;;;;;;4.05;1.58;;;22.60;82.60;;;;;;10748760;33;20029;-71
2023/07/05 06:36:32;;;;;;;2.85;1.62;;;22.50;82.40;;;;;;10749292;33;20343;-73
2023/07/05 06:42:35;;;;;;;3.72;1.30;;;22.70;82.60;;;;;;10748945;33;20068;-71
2023/07/05 06:48:39;;;;;;;3.40;1.27;;;22.80;83.60;;;;;;10736804;33;20055;-71
2023/07/05 06:54:41;;;;;;;1.42;1.05;;;23.10;83.70;;;;;;10751634;33;20025;-72
2023/07/05 07:00:49;;;;;;;2.10;1.10;;;23.30;83.80;;;;;;10748119;33;20043;-72
2023/07/05 07:06:50;;;;;;;1.42;0.88;;;23.30;83.90;;;;;;10737763;32;20040;-71
2023/07/05 07:12:52;;;;;;;3.03;1.83;;;23.50;83.90;;;;;;10751806;33;20421;-73
2023/07/05 07:18:55;;;;;;;1.42;1.08;;;23.80;83.90;;;;;;10751766;33;20060;-73
2023/07/05 07:24:57;;;;;;;1.58;0.95;;;23.90;83.70;;;;;;10766651;33;20437;-73
2023/07/05 07:31:09;;;;;;;1.83;0.95;;;23.90;83.50;;;;;;10547467;27;7031157;-73
2023/07/05 07:37:11;;;;;;;1.90;0.80;;;24.00;83.40;;;;;;10743660;33;20038;-73
2023/07/05 07:43:13;;;;;;;1.27;0.82;;;23.90;83.40;;;;;;10756009;33;20055;-73
2023/07/05 07:49:15;;;;;;;1.10;0.73;;;23.80;83.30;;;;;;10755216;33;20037;-73
2023/07/05 07:55:17;;;;;;;1.62;1.17;;;23.90;83.40;;;;;;10742667;33;20343;-73
2023/07/05 08:01:28;;;;;;;1.95;1.42;;;24.30;83.20;;;;;;10755814;33;20317;-73
2023/07/05 08:07:31;;;;;;;3.00;1.12;;;24.50;82.30;;;;;;10754591;33;20051;-73
2023/07/05 08:13:33;;;;;;;2.08;1.33;;;24.60;82.10;;;;;;10753865;33;20043;-73
2023/07/05 08:19:35;;;;;;;4.45;1.85;;;24.60;82.20;;;;;;10754306;33;20028;-74
2023/07/05 08:25:39;;;;;;;1.50;0.90;;;24.80;82.10;;;;;;10753552;33;20025;-74
2023/07/05 08:31:41;;;;;;;2.67;1.55;;;24.90;82.10;;;;;;10753308;33;20034;-74
2023/07/05 08:37:48;;;;;;;2.92;0.88;;;25.10;82.30;;;;;;10753719;33;20063;-74
2023/07/05 08:44:03;;;;;;;3.30;1.13;;;25.20;82.30;;;;;;10753677;33;20055;-74
2023/07/05 08:50:14;;;;;;;2.62;1.20;;;25.10;81.90;;;;;;10753511;33;20426;-74
2023/07/05 08:56:33;;;;;;;1.62;0.90;;;25.30;82.30;;;;;;10750599;33;20020;-73
2023/07/05 09:02:35;;;;;;;0.95;0.82;;;25.40;81.70;;;;;;10753193;33;20063;-73
2023/07/05 09:09:01;;;;;;;2.40;1.25;;;25.60;81.50;;;;;;10752962;33;20017;-73
2023/07/05 09:15:29;;;;;;;1.70;0.95;;;25.60;80.60;;;;;;10752773;33;20016;-73
2023/07/05 09:22:01;;;;;;;1.55;0.93;;;25.70;80.40;;;;;;10751830;33;20035;-73
2023/07/05 09:28:28;;;;;;;2.85;1.65;;;25.80;79.60;;;;;;10752468;33;20047;-73
2023/07/05 09:34:41;;;;;;;5.63;1.03;;;25.80;79.10;;;;;;10752241;33;20035;-73
2023/07/05 09:40:47;;;;;;;1.55;1.20;;;25.90;79.00;;;;;;10739006;33;20051;-73
2023/07/05 09:46:49;;;;;;;2.40;1.20;;;26.00;77.90;;;;;;10751873;33;20347;-73
2023/07/05 09:52:58;;;;;;;1.95;0.88;;;26.00;76.10;;;;;;10734229;33;20060;-73
2023/07/05 09:59:15;;;;;;;2.05;1.17;;;26.10;76.20;;;;;;10727435;32;20062;-73
2023/07/05 10:05:27;;;;;;;1.98;0.98;;;26.40;75.20;;;;;;10748078;33;20033;-73
2023/07/05 10:11:34;;;;;;;1.85;0.75;;;26.40;74.70;;;;;;10751419;33;20371;-72
2023/07/05 10:17:44;;;;;;;1.60;0.88;;;26.50;74.20;;;;;;10751226;33;20016;-71
2023/07/05 10:23:49;;;;;;;1.45;1.05;;;26.60;73.80;;;;;;10749659;33;20052;-72
2023/07/05 10:30:21;;;;;;;1.12;0.70;;;26.70;73.50;;;;;;10750935;33;20043;-73
2023/07/05 10:36:24;;;;;;;3.58;1.45;;;26.90;73.40;;;;;;10750662;33;20017;-73
2023/07/05 10:42:49;;;;;;;2.37;1.20;;;27.20;73.10;;;;;;10737092;33;20037;-72
2023/07/05 10:48:52;;;;;;;3.28;1.08;;;27.30;71.70;;;;;;10750502;33;20021;-72
2023/07/05 10:55:14;;;;;;;1.92;1.10;;;27.30;70.50;;;;;;10755935;33;20048;-71
2023/07/05 11:01:29;;;;;;;2.17;1.00;;;27.30;70.30;;;;;;10753642;33;20033;-73
2023/07/05 11:07:33;;;;;;;1.77;1.37;;;27.70;69.90;;;;;;10752385;33;20020;-72
2023/07/05 11:13:35;;;;;;;1.02;0.82;;;27.90;69.50;;;;;;10743492;32;20063;-72
2023/07/05 11:19:39;;;;;;;3.08;1.45;;;28.10;69.20;;;;;;10756203;33;20021;-71
2023/07/05 11:25:59;;;;;;;1.77;0.98;;;28.30;69.50;;;;;;10755905;33;20028;-72
2023/07/05 11:32:06;;;;;;;3.03;1.98;;;28.30;69.20;;;;;;10739236;32;20071;-71
2023/07/05 11:38:08;;;;;;;3.33;1.10;;;28.60;68.20;;;;;;10742668;33;20048;-72
2023/07/05 11:44:27;;;;;;;1.98;1.12;;;28.80;68.60;;;;;;10742355;33;20327;-72
2023/07/05 11:50:29;;;;;;;4.45;1.73;;;29.10;67.90;;;;;;10755058;33;20300;-71
2023/07/05 11:56:33;;;;;;;3.30;1.55;;;29.30;68.30;;;;;;10755035;33;20021;-72
2023/07/05 12:03:06;;;;;;;2.20;0.95;;;29.30;67.00;;;;;;10754963;33;20079;-72
2023/07/05 12:09:20;;;;;;;2.60;1.27;;;29.60;66.70;;;;;;10754090;33;20296;-72
2023/07/05 12:15:22;;;;;;;2.92;1.50;;;29.80;65.30;;;;;;10754482;33;20338;-73
2023/07/05 12:21:25;;;;;;;2.55;1.17;;;29.90;64.80;;;;;;10737879;33;20364;-72
2023/07/05 12:27:32;;;;;;;1.95;0.95;;;30.00;64.30;;;;;;10740021;33;20399;-71
2023/07/05 12:33:36;;;;;;;3.20;1.33;;;30.10;63.40;;;;;;10741063;33;20399;-70
2023/07/05 12:39:41;;;;;;;1.75;1.08;;;30.10;62.40;;;;;;10753270;33;20016;-70
2023/07/05 12:45:44;;;;;;;2.15;0.88;;;29.80;61.90;;;;;;10753391;33;20021;-71
2023/07/05 12:51:54;;;;;;;2.12;1.30;;;29.80;63.10;;;;;;10749954;33;20047;-71
2023/07/05 12:57:58;;;;;;;2.62;1.80;;;29.90;60.80;;;;;;10753366;33;20043;-71
2023/07/05 13:04:01;;;;;;;3.55;1.40;;;29.70;60.60;;;;;;10753160;33;20029;-71
2023/07/05 13:10:09;;;;;;;3.58;1.35;;;29.50;61.50;;;;;;10740651;32;20033;-71
2023/07/05 13:16:24;;;;;;;2.60;1.50;;;29.70;60.20;;;;;;10740227;32;20040;-76
2023/07/05 13:22:29;;;;;;;2.03;1.42;;;29.70;58.60;;;;;;10752492;33;20020;-73
2023/07/05 13:28:31;;;;;;;2.30;1.15;;;29.70;59.10;;;;;;10752342;33;20021;-73
2023/07/05 13:34:34;;;;;;;2.12;1.40;;;29.70;59.00;;;;;;10752002;33;20043;-73
2023/07/05 13:40:36;;;;;;;2.10;1.15;;;29.60;57.90;;;;;;10751850;33;20012;-73
2023/07/05 13:46:39;;;;;;;2.45;1.17;;;29.60;58.40;;;;;;10739000;33;20028;-73
2023/07/05 13:53:24;;;;;;;3.08;1.40;;;29.70;58.00;;;;;;10752099;33;20040;-73
2023/07/05 13:59:26;;;;;;;1.92;1.12;;;29.80;57.50;;;;;;10751790;33;20055;-74
2023/07/05 14:05:28;;;;;;;3.65;1.50;;;29.70;59.00;;;;;;10749627;33;20047;-73
2023/07/05 14:11:46;;;;;;;2.15;1.45;;;29.80;58.60;;;;;;10750773;33;20028;-73
2023/07/05 14:17:48;;;;;;;;;;;29.90;57.80;;;;;;10747725;33;20013;-73
2023/07/05 14:23:51;;;;;;;1.58;1.02;;;30.00;57.90;;;;;;10751123;33;19923;-73
2023/07/05 14:29:53;;;;;;;3.33;1.52;;;30.00;57.70;;;;;;10744377;33;20029;-72
2023/07/05 14:35:56;;;;;;;3.17;1.45;;;30.10;56.80;;;;;;10754497;33;20087;-73
2023/07/05 14:41:58;;;;;;;2.60;1.17;;;30.20;56.90;;;;;;10757169;33;20028;-73
2023/07/05 14:48:02;;;;;;;3.08;1.10;;;30.30;56.90;;;;;;10756998;33;20037;-72
2023/07/05 14:54:06;;;;;;;3.95;1.33;;;30.30;57.20;;;;;;10733502;33;20036;-74
2023/07/05 15:00:10;;;;;;;2.80;1.23;;;30.20;57.50;;;;;;10720368;33;20021;-73
2023/07/05 15:06:13;;;;;;;1.42;0.93;;;30.30;57.20;;;;;;10719408;33;20029;-73
2023/07/05 15:12:15;;;;;;;2.22;1.25;;;30.50;57.20;;;;;;10716258;33;20056;-73
2023/07/05 15:18:17;;;;;;;2.80;1.73;;;30.60;57.20;;;;;;10719970;33;20025;-74
2023/07/05 15:24:19;;;;;;;2.83;1.65;;;30.60;57.00;;;;;;10719673;33;20025;-74
2023/07/05 15:30:22;;;;;;;1.80;1.12;;;30.50;56.60;;;;;;10883075;27;20034;-74
2023/07/05 15:36:24;;;;;;;2.28;1.20;;;30.50;56.90;;;;;;10969493;32;20030;-74
2023/07/05 15:42:26;;;;;;;1.33;0.65;;;30.40;58.10;;;;;;10971106;32;20019;-73
2023/07/05 15:48:29;;;;;;;1.67;1.08;;;30.40;58.30;;;;;;10981494;32;20396;-74
2023/07/05 15:54:32;;;;;;;2.62;1.15;;;30.50;58.10;;;;;;10984184;32;20037;-73
2023/07/05 16:00:37;;;;;;;2.35;1.15;;;30.50;58.00;;;;;;10983691;32;20046;-73
2023/07/05 16:06:41;;;;;;;1.30;0.98;;;30.50;58.10;;;;;;10983612;32;20027;-73
2023/07/05 16:12:47;;;;;;;0.80;0.77;;;30.30;59.20;;;;;;10965469;32;20061;-74
2023/07/05 16:26:00;;;;;;;2.05;0.98;;;30.00;63.20;;;;;;10981314;32;20049;-73
2023/07/05 16:32:03;;;;;;;2.60;1.55;;;29.80;62.60;;;;;;10982444;32;20037;-73
2023/07/05 16:38:05;;;;;;;2.12;1.12;;;29.80;62.40;;;;;;10981067;32;20361;-74
2023/07/05 16:44:10;;;;;;;2.30;1.20;;;29.70;63.70;;;;;;10967056;32;20053;-73
2023/07/05 16:50:15;;;;;;;1.45;0.98;;;29.80;64.00;;;;;;10980395;32;20023;-73
2023/07/05 16:56:17;;;;;;;4.15;1.30;;;29.80;63.40;;;;;;10981950;32;20019;-73
2023/07/05 17:02:20;;;;;;;3.50;1.60;;;29.90;64.60;;;;;;10981738;32;20041;-73
2023/07/05 17:08:23;;;;;;;1.02;0.50;;;29.80;63.70;;;;;;10976031;32;20027;-73
2023/07/05 17:14:25;;;;;;;1.52;1.05;;;29.80;63.00;;;;;;10980721;32;20077;-73
2023/07/05 17:20:28;;;;;;;2.60;1.30;;;29.80;65.10;;;;;;10981108;32;20045;-73
2023/07/05 17:26:30;;;;;;;1.55;0.93;;;29.80;67.40;;;;;;10979199;32;20023;-73
2023/07/05 17:32:33;;;;;;;0.98;0.65;;;29.70;67.00;;;;;;10966180;32;20045;-72
2023/07/05 17:38:36;;;;;;;1.65;0.70;;;29.60;66.80;;;;;;10977635;32;20010;-73
2023/07/05 17:44:38;;;;;;;1.17;0.80;;;29.50;66.80;;;;;;10978523;32;20046;-73
2023/07/05 17:50:40;;;;;;;3.17;1.12;;;29.40;67.30;;;;;;10975757;32;20023;-73
2023/07/05 17:56:43;;;;;;;3.45;1.23;;;29.50;67.50;;;;;;10979857;32;20041;-73
2023/07/05 18:02:48;;;;;;;3.80;0.88;;;29.80;67.30;;;;;;10975562;32;20059;-73
2023/07/05 18:08:51;;;;;;;2.03;1.02;;;30.30;66.40;;;;;;10965993;32;20052;-73
2023/07/05 18:14:54;;;;;;;1.23;0.90;;;29.90;67.40;;;;;;10979526;32;20014;-73
2023/07/05 18:20:57;;;;;;;1.52;0.60;;;29.60;68.60;;;;;;10979382;32;20065;-72
2023/07/05 18:26:59;;;;;;;0.80;0.68;;;29.30;69.70;;;;;;10979057;32;20356;-73
2023/07/05 18:33:20;;;;;;;5.78;1.50;;;29.10;70.10;;;;;;10979150;32;20329;-72
2023/07/05 18:39:22;;;;;;;1.70;1.10;;;29.10;70.00;;;;;;10965758;32;20030;-72
2023/07/05 18:45:25;;;;;;;1.30;0.80;;;29.00;71.10;;;;;;10964221;32;20023;-73
2023/07/05 18:51:27;;;;;;;1.58;1.10;;;28.80;71.60;;;;;;10978168;32;20027;-72
2023/07/05 18:57:29;;;;;;;1.67;0.85;;;28.80;72.00;;;;;;10979301;32;20018;-73
2023/07/05 19:03:32;;;;;;;2.97;1.15;;;28.60;72.50;;;;;;10978151;32;20058;-73
2023/07/05 19:09:33;;;;;;;1.87;0.88;;;28.50;72.70;;;;;;10964927;32;20037;-72
2023/07/05 19:15:35;;;;;;;1.10;0.80;;;28.40;73.10;;;;;;10984801;32;20545;-71
2023/07/05 19:21:39;;;;;;;1.75;0.88;;;28.30;73.30;;;;;;10985550;32;20014;-71
2023/07/05 19:28:23;;;;;;;2.17;0.73;;;28.30;73.50;;;;;;10984932;32;20049;-71
2023/07/05 19:34:25;;;;;;;2.47;1.23;;;28.30;73.40;;;;;;10795458;33;20051;-71
2023/07/05 19:40:27;;;;;;;2.17;0.95;;;28.20;73.90;;;;;;10794448;33;20128;-71
2023/07/05 19:46:29;;;;;;;1.33;0.75;;;28.10;74.20;;;;;;10790132;32;20408;-71
2023/07/05 19:52:33;;;;;;;2.25;1.20;;;28.10;74.40;;;;;;10793794;32;20388;-71
2023/07/05 19:58:34;;;;;;;2.37;1.05;;;28.00;74.70;;;;;;10793263;33;20047;-71
2023/07/05 20:04:41;;;;;;;1.73;0.95;;;28.00;75.10;;;;;;10773931;33;20072;-71
2023/07/05 20:10:43;;;;;;;1.95;1.15;;;28.00;75.40;;;;;;10945560;32;20352;-71
2023/07/05 20:16:47;;;;;;;2.17;1.23;;;28.00;75.60;;;;;;10950526;32;20023;-71
2023/07/05 20:22:50;;;;;;;2.97;1.50;;;27.90;75.60;;;;;;10959237;32;20022;-71
2023/07/05 20:28:52;;;;;;;2.60;1.10;;;27.80;76.00;;;;;;10946537;32;20035;-70
2023/07/05 20:34:54;;;;;;;2.78;1.42;;;27.80;76.20;;;;;;10945331;32;20022;-71
2023/07/05 20:40:57;;;;;;;1.73;0.98;;;27.90;76.70;;;;;;10945033;32;20050;-70
2023/07/05 20:46:59;;;;;;;4.00;1.08;;;27.90;76.70;;;;;;10944736;32;20019;-71
2023/07/05 20:53:07;;;;;;;1.23;0.60;;;27.80;76.80;;;;;;10944496;32;20019;-71
2023/07/05 20:59:11;;;;;;;1.40;1.00;;;27.80;77.20;;;;;;10945562;32;20015;-71
2023/07/05 21:05:13;;;;;;;1.75;0.60;;;27.80;77.40;;;;;;10944120;32;20401;-71
2023/07/05 21:11:15;;;;;;;3.37;1.25;;;27.80;77.30;;;;;;10943925;32;20012;-71
2023/07/05 21:17:18;;;;;;;2.53;1.33;;;27.70;77.40;;;;;;10943656;32;20015;-71
2023/07/05 21:23:20;;;;;;;2.03;1.20;;;27.80;77.40;;;;;;10943341;32;20014;-70
2023/07/05 21:29:42;;;;;;;0.88;0.50;;;27.70;77.50;;;;;;10929717;32;20027;-70
2023/07/05 21:35:46;;;;;;;1.05;0.65;;;27.60;77.50;;;;;;10955327;32;20412;-70
2023/07/05 21:42:04;;;;;;;0.62;0.60;;;27.50;77.50;;;;;;10966364;32;20062;-70
2023/07/05 21:48:13;;;;;;;4.00;1.37;;;27.50;77.60;;;;;;10961097;32;20391;-70
2023/07/05 21:54:16;;;;;;;2.33;1.08;;;27.50;78.00;;;;;;10993648;32;20465;-72
2023/07/05 22:00:24;;;;;;;2.05;1.25;;;27.30;78.80;;;;;;11004467;32;20011;-72
2023/07/05 22:06:32;;;;;;;2.70;1.35;;;27.30;79.60;;;;;;11004286;32;20140;-72
2023/07/05 22:12:34;;;;;;;3.62;1.30;;;27.30;80.00;;;;;;11003981;32;20030;-73
2023/07/05 22:18:38;;;;;;;2.50;1.08;;;27.20;80.00;;;;;;10966846;32;20070;-72
2023/07/05 22:24:40;;;;;;;3.75;1.25;;;27.10;80.10;;;;;;10979356;32;20041;-72
2023/07/05 22:30:42;;;;;;;2.42;1.58;;;27.20;79.70;;;;;;10979381;32;20018;-72
2023/07/05 22:36:44;;;;;;;2.42;1.55;;;27.10;80.00;;;;;;10979148;32;20027;-74
2023/07/05 22:42:48;;;;;;;2.87;1.40;;;26.80;80.00;;;;;;10975828;32;20396;-72
2023/07/05 22:48:51;;;;;;;2.40;1.23;;;26.70;80.00;;;;;;10983501;32;20011;-73
2023/07/05 22:54:53;;;;;;;1.67;1.02;;;26.70;79.70;;;;;;10973008;32;20034;-73
2023/07/05 23:01:03;;;;;;;3.22;1.62;;;26.60;79.30;;;;;;10972919;32;20015;-73
2023/07/05 23:07:05;;;;;;;1.77;1.05;;;26.60;78.60;;;;;;10984605;32;20026;-72
2023/07/05 23:13:07;;;;;;;1.77;1.12;;;26.40;78.50;;;;;;10985992;32;20022;-74
2023/07/05 23:19:09;;;;;;;1.65;1.37;;;26.30;79.40;;;;;;10971762;32;20039;-76
2023/07/05 23:25:11;;;;;;;3.28;1.48;;;26.30;79.60;;;;;;10985425;32;20015;-74
2023/07/05 23:31:18;;;;;;;2.40;1.45;;;26.20;79.60;;;;;;10957424;27;20057;-73
2023/07/05 23:37:21;;;;;;;1.30;0.70;;;26.10;79.20;;;;;;10934054;32;20023;-74
2023/07/05 23:43:23;;;;;;;2.10;0.90;;;26.00;78.60;;;;;;10932898;32;20026;-74
2023/07/05 23:49:27;;;;;;;1.80;0.93;;;25.90;77.90;;;;;;10946880;32;20011;-75
2023/07/05 23:55:30;;;;;;;1.08;0.40;;;25.80;78.60;;;;;;10933144;32;20015;-73
